sensor_id;sensor_type;location;lat;lon;timestamp;pressure;altitude;pressure_sealevel;temperature;humidity
64792;BME280;51226;47.504;19.074;2023-03-19T00:01:04;100676.59;;;8.11;51.91
64792;BME280;51226;47.504;19.074;2023-03-19T00:04:16;100673.12;;;8.10;52.15
64792;BME280;51226;47.504;19.074;2023-03-19T00:07:19;100675.56;;;8.07;51.99
64792;BME280;51226;47.504;19.074;2023-03-19T00:10:22;100666.12;;;8.09;51.63
64792;BME280;51226;47.504;19.074;2023-03-19T00:13:25;100664.91;;;8.03;51.93
64792;BME280;51226;47.504;19.074;2023-03-19T00:16:28;100663.94;;;8.01;52.29
64792;BME280;51226;47.504;19.074;2023-03-19T00:19:31;100674.34;;;8.01;52.18
64792;BME280;51226;47.504;19.074;2023-03-19T00:22:34;100678.47;;;7.97;52.32
64792;BME280;51226;47.504;19.074;2023-03-19T00:25:37;100660.13;;;7.94;52.42
64792;BME280;51226;47.504;19.074;2023-03-19T00:28:42;100658.25;;;7.91;52.61
64792;BME280;51226;47.504;19.074;2023-03-19T00:31:45;100651.28;;;7.90;52.77
64792;BME280;51226;47.504;19.074;2023-03-19T00:34:48;100653.72;;;7.87;52.77
64792;BME280;51226;47.504;19.074;2023-03-19T00:37:52;100662.41;;;7.88;52.96
64792;BME280;51226;47.504;19.074;2023-03-19T00:40:55;100650.97;;;7.84;52.50
64792;BME280;51226;47.504;19.074;2023-03-19T00:43:58;100653.03;;;7.75;52.96
64792;BME280;51226;47.504;19.074;2023-03-19T00:47:04;100649.66;;;7.76;52.76
64792;BME280;51226;47.504;19.074;2023-03-19T00:50:09;100649.41;;;7.71;52.96
64792;BME280;51226;47.504;19.074;2023-03-19T00:53:12;100654.41;;;7.68;53.07
64792;BME280;51226;47.504;19.074;2023-03-19T00:56:15;100646.50;;;7.65;53.25
64792;BME280;51226;47.504;19.074;2023-03-19T00:59:20;100646.16;;;7.59;53.01
64792;BME280;51226;47.504;19.074;2023-03-19T01:02:23;100634.88;;;7.58;53.10
64792;BME280;51226;47.504;19.074;2023-03-19T01:05:26;100635.59;;;7.56;53.21
64792;BME280;51226;47.504;19.074;2023-03-19T01:08:32;100638.91;;;7.53;52.87
64792;BME280;51226;47.504;19.074;2023-03-19T01:11:35;100648.22;;;7.50;53.08
64792;BME280;51226;47.504;19.074;2023-03-19T01:14:38;100639.41;;;7.46;52.90
64792;BME280;51226;47.504;19.074;2023-03-19T01:17:41;100644.91;;;7.36;53.29
64792;BME280;51226;47.504;19.074;2023-03-19T01:20:44;100642.12;;;7.33;53.58
64792;BME280;51226;47.504;19.074;2023-03-19T01:23:47;100643.75;;;7.31;53.35
64792;BME280;51226;47.504;19.074;2023-03-19T01:26:50;100651.34;;;7.28;53.73
64792;BME280;51226;47.504;19.074;2023-03-19T01:29:54;100646.81;;;7.23;53.95
64792;BME280;51226;47.504;19.074;2023-03-19T01:32:58;100651.75;;;7.19;54.20
64792;BME280;51226;47.504;19.074;2023-03-19T01:36:02;100651.75;;;7.19;53.71
64792;BME280;51226;47.504;19.074;2023-03-19T01:39:07;100650.59;;;7.14;54.13
64792;BME280;51226;47.504;19.074;2023-03-19T01:42:11;100648.88;;;7.14;54.12
64792;BME280;51226;47.504;19.074;2023-03-19T01:45:38;100650.50;;;7.12;54.15
64792;BME280;51226;47.504;19.074;2023-03-19T01:48:47;100650.34;;;7.09;54.16
64792;BME280;51226;47.504;19.074;2023-03-19T01:51:52;100651.00;;;7.05;54.68
64792;BME280;51226;47.504;19.074;2023-03-19T01:54:59;100645.62;;;7.02;54.57
64792;BME280;51226;47.504;19.074;2023-03-19T01:58:05;100650.72;;;7.00;54.12
64792;BME280;51226;47.504;19.074;2023-03-19T02:01:10;100652.34;;;6.98;54.38
64792;BME280;51226;47.504;19.074;2023-03-19T02:04:15;100659.12;;;6.96;54.50
64792;BME280;51226;47.504;19.074;2023-03-19T02:07:18;100655.62;;;6.96;54.23
64792;BME280;51226;47.504;19.074;2023-03-19T02:10:22;100654.66;;;6.94;54.19
64792;BME280;51226;47.504;19.074;2023-03-19T02:13:26;100646.81;;;6.92;53.99
64792;BME280;51226;47.504;19.074;2023-03-19T02:16:29;100640.63;;;6.90;54.18
64792;BME280;51226;47.504;19.074;2023-03-19T02:19:42;100649.22;;;6.89;54.16
64792;BME280;51226;47.504;19.074;2023-03-19T02:26:26;100648.75;;;6.81;54.27
64792;BME280;51226;47.504;19.074;2023-03-19T02:29:32;100648.44;;;6.75;54.44
64792;BME280;51226;47.504;19.074;2023-03-19T02:32:35;100645.75;;;6.74;55.10
64792;BME280;51226;47.504;19.074;2023-03-19T02:35:41;100645.00;;;6.76;55.00
64792;BME280;51226;47.504;19.074;2023-03-19T02:38:45;100651.13;;;6.77;54.41
64792;BME280;51226;47.504;19.074;2023-03-19T02:41:50;100643.84;;;6.71;54.69
64792;BME280;51226;47.504;19.074;2023-03-19T02:44:57;100643.69;;;6.68;54.96
64792;BME280;51226;47.504;19.074;2023-03-19T02:48:01;100629.94;;;6.69;54.66
64792;BME280;51226;47.504;19.074;2023-03-19T02:51:04;100635.75;;;6.65;54.70
64792;BME280;51226;47.504;19.074;2023-03-19T02:54:07;100635.81;;;6.66;54.78
64792;BME280;51226;47.504;19.074;2023-03-19T02:57:10;100631.47;;;6.65;54.84
64792;BME280;51226;47.504;19.074;2023-03-19T03:00:14;100621.59;;;6.60;54.65
64792;BME280;51226;47.504;19.074;2023-03-19T03:03:18;100631.81;;;6.57;54.72
64792;BME280;51226;47.504;19.074;2023-03-19T03:06:21;100628.97;;;6.52;54.68
64792;BME280;51226;47.504;19.074;2023-03-19T03:09:24;100635.03;;;6.53;55.16
64792;BME280;51226;47.504;19.074;2023-03-19T03:12:27;100629.75;;;6.51;55.51
64792;BME280;51226;47.504;19.074;2023-03-19T03:15:30;100635.03;;;6.53;54.99
64792;BME280;51226;47.504;19.074;2023-03-19T03:18:33;100641.91;;;6.52;54.58
64792;BME280;51226;47.504;19.074;2023-03-19T03:21:36;100645.19;;;6.49;54.83
64792;BME280;51226;47.504;19.074;2023-03-19T03:24:39;100635.47;;;6.45;54.76
64792;BME280;51226;47.504;19.074;2023-03-19T03:27:42;100633.69;;;6.44;54.53
64792;BME280;51226;47.504;19.074;2023-03-19T03:30:46;100640.66;;;6.45;54.60
64792;BME280;51226;47.504;19.074;2023-03-19T03:33:50;100640.28;;;6.39;54.61
64792;BME280;51226;47.504;19.074;2023-03-19T03:36:53;100641.91;;;6.37;54.61
64792;BME280;51226;47.504;19.074;2023-03-19T03:39:56;100643.44;;;6.34;54.99
64792;BME280;51226;47.504;19.074;2023-03-19T03:42:59;100636.34;;;6.31;54.69
64792;BME280;51226;47.504;19.074;2023-03-19T03:46:04;100639.78;;;6.30;55.04
64792;BME280;51226;47.504;19.074;2023-03-19T03:49:09;100646.81;;;6.33;55.01
64792;BME280;51226;47.504;19.074;2023-03-19T03:52:12;100640.19;;;6.38;55.17
64792;BME280;51226;47.504;19.074;2023-03-19T03:55:15;100638.94;;;6.31;55.99
64792;BME280;51226;47.504;19.074;2023-03-19T03:58:17;100630.47;;;6.34;55.58
64792;BME280;51226;47.504;19.074;2023-03-19T04:01:21;100638.34;;;6.35;55.59
64792;BME280;51226;47.504;19.074;2023-03-19T04:04:25;100635.47;;;6.30;55.75
64792;BME280;51226;47.504;19.074;2023-03-19T04:07:28;100644.75;;;6.27;55.69
64792;BME280;51226;47.504;19.074;2023-03-19T04:10:31;100640.19;;;6.23;56.38
64792;BME280;51226;47.504;19.074;2023-03-19T04:13:37;100638.75;;;6.28;56.30
64792;BME280;51226;47.504;19.074;2023-03-19T04:16:40;100639.78;;;6.30;55.61
64792;BME280;51226;47.504;19.074;2023-03-19T04:19:45;100643.94;;;6.28;55.56
64792;BME280;51226;47.504;19.074;2023-03-19T04:22:48;100646.38;;;6.25;55.52
64792;BME280;51226;47.504;19.074;2023-03-19T04:25:51;100638.50;;;6.23;55.69
64792;BME280;51226;47.504;19.074;2023-03-19T04:28:54;100635.00;;;6.23;55.51
64792;BME280;51226;47.504;19.074;2023-03-19T04:31:59;100634.81;;;6.20;55.92
64792;BME280;51226;47.504;19.074;2023-03-19T04:35:02;100627.00;;;6.18;56.01
64792;BME280;51226;47.504;19.074;2023-03-19T04:38:05;100624.31;;;6.17;56.02
64792;BME280;51226;47.504;19.074;2023-03-19T04:41:08;100623.28;;;6.15;56.31
64792;BME280;51226;47.504;19.074;2023-03-19T04:44:11;100622.31;;;6.12;56.51
64792;BME280;51226;47.504;19.074;2023-03-19T04:47:15;100622.31;;;6.12;56.33
64792;BME280;51226;47.504;19.074;2023-03-19T04:50:19;100618.03;;;6.13;56.06
64792;BME280;51226;47.504;19.074;2023-03-19T04:53:22;100630.91;;;6.11;55.86
64792;BME280;51226;47.504;19.074;2023-03-19T04:56:26;100628.13;;;6.08;56.28
64792;BME280;51226;47.504;19.074;2023-03-19T04:59:29;100635.91;;;6.08;56.25
64792;BME280;51226;47.504;19.074;2023-03-19T05:02:33;100640.34;;;6.11;55.95
64792;BME280;51226;47.504;19.074;2023-03-19T05:05:36;100640.87;;;6.05;56.04
64792;BME280;51226;47.504;19.074;2023-03-19T05:08:39;100644.34;;;6.06;56.26
64792;BME280;51226;47.504;19.074;2023-03-19T05:11:42;100645.00;;;6.02;56.97
64792;BME280;51226;47.504;19.074;2023-03-19T05:14:46;100638.09;;;6.02;56.90
64792;BME280;51226;47.504;19.074;2023-03-19T05:17:49;100650.25;;;6.03;57.19
64792;BME280;51226;47.504;19.074;2023-03-19T05:20:53;100644.47;;;6.07;56.91
64792;BME280;51226;47.504;19.074;2023-03-19T05:23:56;100643.03;;;6.12;56.63
64792;BME280;51226;47.504;19.074;2023-03-19T05:27:00;100649.38;;;6.18;56.45
64792;BME280;51226;47.504;19.074;2023-03-19T05:30:04;100654.56;;;6.18;56.47
64792;BME280;51226;47.504;19.074;2023-03-19T05:33:08;100645.38;;;6.23;56.23
64792;BME280;51226;47.504;19.074;2023-03-19T05:36:12;100655.81;;;6.24;56.40
64792;BME280;51226;47.504;19.074;2023-03-19T05:39:16;100662.62;;;6.22;56.56
64792;BME280;51226;47.504;19.074;2023-03-19T05:42:19;100661.09;;;6.26;56.53
64792;BME280;51226;47.504;19.074;2023-03-19T05:45:22;100661.47;;;6.32;56.46
64792;BME280;51226;47.504;19.074;2023-03-19T05:48:25;100660.41;;;6.43;55.91
64792;BME280;51226;47.504;19.074;2023-03-19T05:51:29;100668.44;;;6.48;56.16
64792;BME280;51226;47.504;19.074;2023-03-19T05:54:32;100667.91;;;6.68;55.56
64792;BME280;51226;47.504;19.074;2023-03-19T05:57:35;100661.50;;;6.62;56.31
64792;BME280;51226;47.504;19.074;2023-03-19T06:00:38;100665.06;;;6.64;56.54
64792;BME280;51226;47.504;19.074;2023-03-19T06:03:41;100660.47;;;6.60;56.29
64792;BME280;51226;47.504;19.074;2023-03-19T06:06:45;100662.56;;;6.65;56.03
64792;BME280;51226;47.504;19.074;2023-03-19T06:09:48;100670.75;;;6.73;55.78
64792;BME280;51226;47.504;19.074;2023-03-19T06:12:51;100673.22;;;7.01;54.47
64792;BME280;51226;47.504;19.074;2023-03-19T06:15:55;100667.97;;;7.00;54.46
64792;BME280;51226;47.504;19.074;2023-03-19T06:18:58;100681.37;;;7.08;53.91
64792;BME280;51226;47.504;19.074;2023-03-19T06:22:01;100682.25;;;7.08;53.85
64792;BME280;51226;47.504;19.074;2023-03-19T06:25:04;100674.66;;;7.11;53.68
64792;BME280;51226;47.504;19.074;2023-03-19T06:28:09;100675.88;;;7.18;53.89
64792;BME280;51226;47.504;19.074;2023-03-19T06:31:13;100678.09;;;7.27;52.84
64792;BME280;51226;47.504;19.074;2023-03-19T06:34:17;100687.06;;;7.32;51.95
64792;BME280;51226;47.504;19.074;2023-03-19T06:37:20;100693.00;;;7.46;51.64
64792;BME280;51226;47.504;19.074;2023-03-19T06:40:24;100693.84;;;7.61;51.50
64792;BME280;51226;47.504;19.074;2023-03-19T06:43:27;100697.34;;;7.78;50.54
64792;BME280;51226;47.504;19.074;2023-03-19T06:46:30;100703.31;;;7.92;50.31
64792;BME280;51226;47.504;19.074;2023-03-19T06:49:33;100702.25;;;8.05;50.19
64792;BME280;51226;47.504;19.074;2023-03-19T06:52:36;100706.62;;;8.22;49.38
64792;BME280;51226;47.504;19.074;2023-03-19T06:55:39;100705.09;;;8.42;48.40
64792;BME280;51226;47.504;19.074;2023-03-19T06:58:42;100707.81;;;8.62;47.80
64792;BME280;51226;47.504;19.074;2023-03-19T07:01:45;100707.34;;;8.87;45.60
64792;BME280;51226;47.504;19.074;2023-03-19T07:04:49;100693.00;;;8.95;46.19
64792;BME280;51226;47.504;19.074;2023-03-19T07:07:52;100699.50;;;9.21;45.28
64792;BME280;51226;47.504;19.074;2023-03-19T07:10:56;100692.97;;;9.48;44.66
64792;BME280;51226;47.504;19.074;2023-03-19T07:14:00;100686.81;;;9.65;43.92
64792;BME280;51226;47.504;19.074;2023-03-19T07:17:03;100688.56;;;9.84;43.84
64792;BME280;51226;47.504;19.074;2023-03-19T07:20:06;100689.72;;;10.10;43.69
64792;BME280;51226;47.504;19.074;2023-03-19T07:23:10;100683.09;;;10.36;42.89
64792;BME280;51226;47.504;19.074;2023-03-19T07:26:12;100680.53;;;10.57;41.74
64792;BME280;51226;47.504;19.074;2023-03-19T07:29:15;100678.06;;;10.82;41.17
64792;BME280;51226;47.504;19.074;2023-03-19T07:32:18;100678.75;;;10.99;41.07
64792;BME280;51226;47.504;19.074;2023-03-19T07:35:22;100673.12;;;11.10;40.59
64792;BME280;51226;47.504;19.074;2023-03-19T07:38:25;100669.44;;;11.26;40.01
64792;BME280;51226;47.504;19.074;2023-03-19T07:41:28;100679.88;;;11.49;40.20
64792;BME280;51226;47.504;19.074;2023-03-19T07:44:30;100685.16;;;11.73;38.84
64792;BME280;51226;47.504;19.074;2023-03-19T07:47:33;100686.22;;;12.01;38.34
64792;BME280;51226;47.504;19.074;2023-03-19T07:50:36;100677.78;;;12.32;38.00
64792;BME280;51226;47.504;19.074;2023-03-19T07:53:39;100673.19;;;12.76;37.62
64792;BME280;51226;47.504;19.074;2023-03-19T07:56:42;100659.84;;;13.22;34.83
64792;BME280;51226;47.504;19.074;2023-03-19T07:59:45;100656.88;;;14.29;34.39
64792;BME280;51226;47.504;19.074;2023-03-19T08:02:47;100660.06;;;18.18;28.57
64792;BME280;51226;47.504;19.074;2023-03-19T08:05:51;100651.09;;;23.01;22.00
64792;BME280;51226;47.504;19.074;2023-03-19T08:08:53;100651.88;;;26.08;18.88
64792;BME280;51226;47.504;19.074;2023-03-19T08:11:57;100642.09;;;27.52;16.63
64792;BME280;51226;47.504;19.074;2023-03-19T08:14:59;100634.44;;;28.01;16.31
64792;BME280;51226;47.504;19.074;2023-03-19T08:18:03;100629.97;;;28.02;16.44
64792;BME280;51226;47.504;19.074;2023-03-19T08:21:06;100633.72;;;27.96;16.01
64792;BME280;51226;47.504;19.074;2023-03-19T08:24:10;100626.66;;;27.28;16.69
64792;BME280;51226;47.504;19.074;2023-03-19T08:27:13;100624.88;;;25.78;17.76
64792;BME280;51226;47.504;19.074;2023-03-19T08:30:16;100627.09;;;23.91;20.11
64792;BME280;51226;47.504;19.074;2023-03-19T08:33:19;100639.94;;;22.54;21.38
64792;BME280;51226;47.504;19.074;2023-03-19T08:36:23;100642.16;;;21.58;22.18
64792;BME280;51226;47.504;19.074;2023-03-19T08:39:25;100637.81;;;20.86;23.32
64792;BME280;51226;47.504;19.074;2023-03-19T08:42:29;100648.38;;;20.43;23.35
64792;BME280;51226;47.504;19.074;2023-03-19T08:45:32;100644.81;;;20.32;23.29
64792;BME280;51226;47.504;19.074;2023-03-19T08:48:35;100641.31;;;20.31;23.73
64792;BME280;51226;47.504;19.074;2023-03-19T08:51:40;100640.44;;;20.39;23.04
64792;BME280;51226;47.504;19.074;2023-03-19T08:54:43;100643.97;;;20.47;23.49
64792;BME280;51226;47.504;19.074;2023-03-19T08:57:46;100642.19;;;20.33;23.95
64792;BME280;51226;47.504;19.074;2023-03-19T09:00:49;100637.75;;;20.23;23.32
64792;BME280;51226;47.504;19.074;2023-03-19T09:03:52;100630.66;;;20.17;24.09
64792;BME280;51226;47.504;19.074;2023-03-19T09:06:55;100626.22;;;20.06;23.51
64792;BME280;51226;47.504;19.074;2023-03-19T09:09:58;100628.03;;;20.22;23.75
64792;BME280;51226;47.504;19.074;2023-03-19T09:13:01;100627.19;;;20.49;22.77
64792;BME280;51226;47.504;19.074;2023-03-19T09:16:05;100614.81;;;20.59;23.31
64792;BME280;51226;47.504;19.074;2023-03-19T09:19:08;100616.63;;;20.92;23.27
64792;BME280;51226;47.504;19.074;2023-03-19T09:22:11;100598.03;;;21.20;22.83
64792;BME280;51226;47.504;19.074;2023-03-19T09:25:15;100616.56;;;21.33;22.79
64792;BME280;51226;47.504;19.074;2023-03-19T09:28:18;100618.34;;;21.24;23.73
64792;BME280;51226;47.504;19.074;2023-03-19T09:31:22;100613.00;;;21.41;21.74
64792;BME280;51226;47.504;19.074;2023-03-19T09:34:25;100615.66;;;21.55;23.91
64792;BME280;51226;47.504;19.074;2023-03-19T09:37:28;100610.19;;;21.86;21.46
64792;BME280;51226;47.504;19.074;2023-03-19T09:40:38;100615.50;;;21.86;21.76
64792;BME280;51226;47.504;19.074;2023-03-19T09:47:28;100596.78;;;22.11;22.00
64792;BME280;51226;47.504;19.074;2023-03-19T09:50:33;100595.81;;;22.24;22.18
64792;BME280;51226;47.504;19.074;2023-03-19T09:53:45;100587.00;;;22.19;22.25
64792;BME280;51226;47.504;19.074;2023-03-19T09:56:51;100588.59;;;22.48;21.40
64792;BME280;51226;47.504;19.074;2023-03-19T09:59:56;100587.59;;;22.64;21.75
64792;BME280;51226;47.504;19.074;2023-03-19T10:03:05;100589.22;;;22.79;21.53
64792;BME280;51226;47.504;19.074;2023-03-19T10:09:41;100577.44;;;23.05;21.23
64792;BME280;51226;47.504;19.074;2023-03-19T10:12:55;100580.09;;;23.05;21.21
64792;BME280;51226;47.504;19.074;2023-03-19T10:16:03;100578.34;;;23.07;21.62
64792;BME280;51226;47.504;19.074;2023-03-19T10:19:12;100580.09;;;23.11;21.61
64792;BME280;51226;47.504;19.074;2023-03-19T10:22:41;100575.38;;;23.36;20.42
64792;BME280;51226;47.504;19.074;2023-03-19T10:25:45;100584.34;;;23.29;21.09
64792;BME280;51226;47.504;19.074;2023-03-19T10:29:15;100574.62;;;23.22;21.07
64792;BME280;51226;47.504;19.074;2023-03-19T10:32:42;100566.66;;;23.19;20.54
64792;BME280;51226;47.504;19.074;2023-03-19T10:35:48;100560.69;;;22.93;21.78
64792;BME280;51226;47.504;19.074;2023-03-19T10:38:53;100564.34;;;22.83;21.42
64792;BME280;51226;47.504;19.074;2023-03-19T10:42:07;100554.63;;;22.84;22.23
64792;BME280;51226;47.504;19.074;2023-03-19T10:48:29;100546.91;;;23.40;21.71
64792;BME280;51226;47.504;19.074;2023-03-19T10:51:32;100546.88;;;23.44;21.19
64792;BME280;51226;47.504;19.074;2023-03-19T10:54:39;100541.31;;;23.63;23.00
64792;BME280;51226;47.504;19.074;2023-03-19T10:57:48;100535.75;;;23.83;20.78
64792;BME280;51226;47.504;19.074;2023-03-19T11:04:01;100518.63;;;24.01;20.91
64792;BME280;51226;47.504;19.074;2023-03-19T11:07:18;100521.56;;;23.82;20.71
64792;BME280;51226;47.504;19.074;2023-03-19T11:10:24;100517.56;;;23.46;21.33
64792;BME280;51226;47.504;19.074;2023-03-19T11:13:29;100517.19;;;23.74;20.27
64792;BME280;51226;47.504;19.074;2023-03-19T11:16:49;100504.66;;;23.82;20.57
64792;BME280;51226;47.504;19.074;2023-03-19T11:19:57;100507.31;;;23.82;20.72
64792;BME280;51226;47.504;19.074;2023-03-19T11:23:03;100500.97;;;23.92;21.40
64792;BME280;51226;47.504;19.074;2023-03-19T11:26:17;100488.37;;;24.02;20.88
64792;BME280;51226;47.504;19.074;2023-03-19T11:29:22;100476.78;;;24.06;21.84
64792;BME280;51226;47.504;19.074;2023-03-19T11:52:13;100453.94;;;23.90;21.13
64792;BME280;51226;47.504;19.074;2023-03-19T11:55:21;100451.06;;;24.03;20.92
64792;BME280;51226;47.504;19.074;2023-03-19T12:02:28;100440.53;;;23.96;20.26
64792;BME280;51226;47.504;19.074;2023-03-19T12:06:23;100434.50;;;23.81;20.90
64792;BME280;51226;47.504;19.074;2023-03-19T12:12:33;100419.16;;;23.38;20.59
64792;BME280;51226;47.504;19.074;2023-03-19T12:15:59;100423.44;;;23.48;20.39
64792;BME280;51226;47.504;19.074;2023-03-19T12:22:41;100412.19;;;23.31;20.78
64792;BME280;51226;47.504;19.074;2023-03-19T12:33:10;100398.56;;;22.86;20.38
64792;BME280;51226;47.504;19.074;2023-03-19T12:36:24;100389.53;;;22.98;21.60
64792;BME280;51226;47.504;19.074;2023-03-19T12:39:34;100386.00;;;22.97;21.00
64792;BME280;51226;47.504;19.074;2023-03-19T12:42:39;100378.91;;;23.60;20.02
64792;BME280;51226;47.504;19.074;2023-03-19T12:45:46;100367.41;;;23.59;20.34
64792;BME280;51226;47.504;19.074;2023-03-19T12:49:01;100365.84;;;23.44;20.36
64792;BME280;51226;47.504;19.074;2023-03-19T12:52:35;100364.41;;;23.22;20.75
64792;BME280;51226;47.504;19.074;2023-03-19T12:55:45;100361.97;;;23.02;20.54
64792;BME280;51226;47.504;19.074;2023-03-19T12:59:07;100352.50;;;22.84;21.25
64792;BME280;51226;47.504;19.074;2023-03-19T13:05:33;100353.44;;;22.76;20.33
64792;BME280;51226;47.504;19.074;2023-03-19T13:12:23;100350.09;;;22.64;21.30
64792;BME280;51226;47.504;19.074;2023-03-19T13:15:34;100336.91;;;22.51;20.86
64792;BME280;51226;47.504;19.074;2023-03-19T13:22:17;100333.19;;;22.68;21.96
64792;BME280;51226;47.504;19.074;2023-03-19T13:25:26;100330.72;;;22.51;19.80
64792;BME280;51226;47.504;19.074;2023-03-19T13:28:35;100332.25;;;21.87;21.37
64792;BME280;51226;47.504;19.074;2023-03-19T13:31:39;100326.50;;;21.29;22.03
64792;BME280;51226;47.504;19.074;2023-03-19T13:34:41;100321.38;;;21.01;22.23
64792;BME280;51226;47.504;19.074;2023-03-19T13:37:44;100320.66;;;20.58;21.93
64792;BME280;51226;47.504;19.074;2023-03-19T13:40:58;100313.75;;;20.13;22.95
64792;BME280;51226;47.504;19.074;2023-03-19T13:44:26;100315.53;;;20.04;22.83
64792;BME280;51226;47.504;19.074;2023-03-19T13:57:34;100289.94;;;19.07;24.74
64792;BME280;51226;47.504;19.074;2023-03-19T14:03:57;100290.69;;;18.61;25.89
64792;BME280;51226;47.504;19.074;2023-03-19T14:10:25;100288.84;;;18.42;26.18
64792;BME280;51226;47.504;19.074;2023-03-19T14:13:32;100294.19;;;18.57;25.59
64792;BME280;51226;47.504;19.074;2023-03-19T14:16:41;100279.25;;;18.68;26.26
64792;BME280;51226;47.504;19.074;2023-03-19T14:19:49;100272.22;;;18.77;26.20
64792;BME280;51226;47.504;19.074;2023-03-19T14:23:17;100288.97;;;18.80;25.99
64792;BME280;51226;47.504;19.074;2023-03-19T14:26:28;100288.06;;;18.69;26.58
64792;BME280;51226;47.504;19.074;2023-03-19T14:29:33;100292.41;;;18.53;25.20
64792;BME280;51226;47.504;19.074;2023-03-19T14:32:38;100286.16;;;18.34;25.85
64792;BME280;51226;47.504;19.074;2023-03-19T14:35:45;100279.03;;;18.14;26.17
64792;BME280;51226;47.504;19.074;2023-03-19T14:38:58;100284.25;;;18.05;26.35
64792;BME280;51226;47.504;19.074;2023-03-19T14:42:16;100276.25;;;17.91;27.29
64792;BME280;51226;47.504;19.074;2023-03-19T14:52:03;100279.56;;;17.66;28.60
64792;BME280;51226;47.504;19.074;2023-03-19T14:55:12;100279.56;;;17.63;27.96
64792;BME280;51226;47.504;19.074;2023-03-19T14:58:15;100283.97;;;17.68;26.81
64792;BME280;51226;47.504;19.074;2023-03-19T15:01:19;100280.38;;;17.58;26.76
64792;BME280;51226;47.504;19.074;2023-03-19T15:04:23;100271.59;;;17.56;26.79
64792;BME280;51226;47.504;19.074;2023-03-19T15:07:36;100283.00;;;17.57;26.22
64792;BME280;51226;47.504;19.074;2023-03-19T15:14:13;100274.97;;;17.41;27.53
64792;BME280;51226;47.504;19.074;2023-03-19T15:17:24;100275.72;;;17.27;27.05
64792;BME280;51226;47.504;19.074;2023-03-19T15:20:33;100274.03;;;17.33;26.20
64792;BME280;51226;47.504;19.074;2023-03-19T15:23:38;100278.09;;;16.96;27.79
64792;BME280;51226;47.504;19.074;2023-03-19T15:26:43;100281.53;;;16.92;28.34
64792;BME280;51226;47.504;19.074;2023-03-19T15:29:48;100287.50;;;16.77;27.51
64792;BME280;51226;47.504;19.074;2023-03-19T15:32:53;100280.31;;;16.62;28.67
64792;BME280;51226;47.504;19.074;2023-03-19T15:36:19;100286.28;;;16.48;28.19
64792;BME280;51226;47.504;19.074;2023-03-19T15:39:28;100286.19;;;16.39;29.90
64792;BME280;51226;47.504;19.074;2023-03-19T15:42:34;100290.34;;;16.23;29.64
64792;BME280;51226;47.504;19.074;2023-03-19T15:45:44;100282.31;;;16.11;29.39
64792;BME280;51226;47.504;19.074;2023-03-19T15:48:55;100283.94;;;16.03;29.26
64792;BME280;51226;47.504;19.074;2023-03-19T15:52:04;100289.97;;;15.94;29.97
64792;BME280;51226;47.504;19.074;2023-03-19T15:55:08;100285.47;;;15.88;30.15
64792;BME280;51226;47.504;19.074;2023-03-19T15:58:19;100283.72;;;15.86;31.10
64792;BME280;51226;47.504;19.074;2023-03-19T16:01:23;100298.59;;;15.87;29.60
64792;BME280;51226;47.504;19.074;2023-03-19T16:04:27;100300.38;;;15.88;30.05
64792;BME280;51226;47.504;19.074;2023-03-19T16:07:52;100293.22;;;15.78;29.88
64792;BME280;51226;47.504;19.074;2023-03-19T16:14:41;100300.50;;;15.94;29.18
64792;BME280;51226;47.504;19.074;2023-03-19T16:17:45;100300.06;;;15.69;29.95
64792;BME280;51226;47.504;19.074;2023-03-19T16:20:58;100301.66;;;15.58;31.19
64792;BME280;51226;47.504;19.074;2023-03-19T16:24:23;100307.66;;;15.51;30.71
64792;BME280;51226;47.504;19.074;2023-03-19T16:27:37;100304.09;;;15.47;31.85
64792;BME280;51226;47.504;19.074;2023-03-19T16:30:46;100310.06;;;15.37;32.41
64792;BME280;51226;47.504;19.074;2023-03-19T16:33:50;100303.78;;;15.27;32.10
64792;BME280;51226;47.504;19.074;2023-03-19T16:36:55;100297.56;;;15.22;31.53
64792;BME280;51226;47.504;19.074;2023-03-19T16:40:02;100310.84;;;14.84;49.71
64792;BME280;51226;47.504;19.074;2023-03-19T16:43:13;100316.22;;;14.08;50.37
64792;BME280;51226;47.504;19.074;2023-03-19T16:46:18;100320.00;;;13.83;52.30
64792;BME280;51226;47.504;19.074;2023-03-19T16:49:21;100325.22;;;13.81;49.57
64792;BME280;51226;47.504;19.074;2023-03-19T16:52:26;100323.66;;;13.89;46.10
64792;BME280;51226;47.504;19.074;2023-03-19T16:55:34;100322.97;;;13.97;46.20
64792;BME280;51226;47.504;19.074;2023-03-19T16:58:38;100329.22;;;14.02;46.32
64792;BME280;51226;47.504;19.074;2023-03-19T17:01:44;100335.37;;;14.04;44.66
64792;BME280;51226;47.504;19.074;2023-03-19T17:04:47;100330.97;;;14.03;44.25
64792;BME280;51226;47.504;19.074;2023-03-19T17:07:52;100327.44;;;14.01;43.69
64792;BME280;51226;47.504;19.074;2023-03-19T17:10:57;100340.50;;;13.99;43.87
64792;BME280;51226;47.504;19.074;2023-03-19T17:14:00;100335.19;;;13.96;46.71
64792;BME280;51226;47.504;19.074;2023-03-19T17:17:15;100345.63;;;13.95;42.64
64792;BME280;51226;47.504;19.074;2023-03-19T17:20:27;100345.59;;;13.93;41.37
64792;BME280;51226;47.504;19.074;2023-03-19T17:23:32;100339.44;;;13.91;41.24
64792;BME280;51226;47.504;19.074;2023-03-19T17:26:36;100339.38;;;13.89;39.25
64792;BME280;51226;47.504;19.074;2023-03-19T17:29:38;100348.09;;;13.87;38.93
64792;BME280;51226;47.504;19.074;2023-03-19T17:32:46;100340.25;;;13.88;39.04
64792;BME280;51226;47.504;19.074;2023-03-19T17:35:51;100340.22;;;13.87;37.41
64792;BME280;51226;47.504;19.074;2023-03-19T17:38:55;100346.31;;;13.86;39.05
64792;BME280;51226;47.504;19.074;2023-03-19T17:41:58;100347.06;;;13.80;39.63